Terminal Aerodrome Forecast
Issued by NWS

Home | Current Version | Previous Version | Graphics & Text | Print | Product List | Glossary On
Versions: 1 2 3 4 5 6 7 8 9 10 11 12 13 14 15
000
FTUS43 KMPX 291739
TAFRNH
TAF
KRNH 291739Z 2918/3018 32013G20KT P6SM SCT018 BKN025
      TEMPO 2918/2922 SCT025 BKN040
     FM292200 32012KT P6SM SCT020
     FM300300 33009KT P6SM SKC
     FM300800 VRB03KT P6SM SCT100
     FM301500 15003KT P6SM BKN100=

USA.gov is the U.S. government's official web portal to all federal, state and local government web resources and services.